This is the latest recevied weather packets stored in our database for station/object KD7AWQ. If no packets are shown the sender has not sent any weather packets the latest 10 day(s).
| Time | Temp. | Humidity | Pressure | Rain* | Wind** | Luminosity | Snow |
|---|---|---|---|---|---|---|---|
| 1777495704 | 25° C | 9% | 1184.3 hPa | 0 mm | - | 852 W/m² | - |
| 1777495400 | 25° C | 9% | 1184.5 hPa | 0 mm | - | 841 W/m² | - |
| 1777495097 | 24.44° C | 9% | 1184.3 hPa | 0 mm | - | 932 W/m² | - |
| 1777494794 | 25° C | 9% | 1184.3 hPa | 0 mm | - | 900 W/m² | - |
| 1777494491 | 25° C | 9% | 1184.1 hPa | 0 mm | - | 727 W/m² | - |
| 1777494188 | 25° C | 9% | 1184.5 hPa | 0 mm | - | 1063 W/m² | - |
| 1777493885 | 25° C | 9% | 1184.3 hPa | 0 mm | - | 963 W/m² | - |
| 1777493583 | 25° C | 9% | 1184.5 hPa | 0 mm | - | 1033 W/m² | - |
| 1777493281 | 24.44° C | 10% | 1184.3 hPa | 0 mm | - | 932 W/m² | - |
| 1777492976 | 25° C | 9% | 1184.5 hPa | 0 mm | - | 1033 W/m² | - |
| 1777492674 | 25.56° C | 9% | 1184.5 hPa | 0 mm | - | 1063 W/m² | - |
| 1777492373 | 25° C | 8% | 1184.7 hPa | 0 mm | - | 1090 W/m² | - |
| 1777492071 | 24.44° C | 9% | 1184.7 hPa | 0 mm | - | 1036 W/m² | - |
| 1777491768 | 25° C | 9% | 1184.5 hPa | 0 mm | - | 1035 W/m² | - |
| 1777491464 | 25° C | 9% | 1184.7 hPa | 0 mm | - | 1081 W/m² | - |
| 1777491162 | 24.44° C | 9% | 1184.8 hPa | 0 mm | - | 1081 W/m² | - |
| 1777490857 | 25° C | 9% | 1184.6 hPa | 0 mm | - | 1080 W/m² | - |
| 1777490554 | 24.44° C | 8% | 1184.7 hPa | 0 mm | - | 1089 W/m² | - |
| 1777490250 | 25° C | 9% | 1184.8 hPa | 0 mm | - | 1087 W/m² | - |
| 1777489948 | 25° C | 9% | 1184.9 hPa | 0 mm | - | 1090 W/m² | - |
| 1777489646 | 25.56° C | 9% | 1185 hPa | 0 mm | - | 1087 W/m² | - |
| 1777489341 | 25° C | 8% | 1185.4 hPa | 0 mm | - | 1067 W/m² | - |
| 1777489039 | 24.44° C | 7% | 1185.3 hPa | 0 mm | - | 1080 W/m² | - |
| 1777488735 | 24.44° C | 8% | 1185.3 hPa | 0 mm | - | 1086 W/m² | - |
| 1777488433 | 23.89° C | 11% | 1185.4 hPa | 0 mm | - | 913 W/m² | - |
* Rain latest hour (hover to see other rain measurements)
** Current wind speed in m/s (hover to see current wind gust speed)